Time;durP1;ratioP1;P1;durP2;ratioP2;P2;SDS_P1;SDS_P2;PMS_P1;PMS_P2;Temp;Humidity;BMP_temperature;BMP_pressure;BME280_temperature;BME280_humidity;BME280_pressure;Samples;Min_cycle;Max_cycle;Signal;HPM_P1;HPM_P2
2022/12/30 00:07:20;;;;;;;11.90;8.05;;;;;;;18.07;45.55;100598.16;20884776;28;20516;-81
2022/12/30 00:38:05;;;;;;;10.07;7.70;;;;;;;18.05;45.70;100615.75;20857804;28;20144;-81
2022/12/30 00:58:27;;;;;;;12.00;8.35;;;;;;;18.04;45.58;100622.78;20893700;28;20044;-81
2022/12/30 01:08:28;;;;;;;11.55;8.32;;;;;;;18.04;45.52;100601.81;20884422;28;20041;-80
2022/12/30 01:18:29;;;;;;;11.57;8.10;;;;;;;18.03;45.64;100601.91;20877935;28;20052;-81
2022/12/30 01:28:31;;;;;;;10.32;7.57;;;;;;;18.03;45.71;100596.69;20898221;28;20037;-80
2022/12/30 01:38:32;;;;;;;9.75;7.30;;;;;;;18.02;45.57;100587.97;20879266;28;20083;-81
2022/12/30 01:48:34;;;;;;;10.77;7.50;;;;;;;18.02;45.60;100595.81;20902505;28;20037;-81
2022/12/30 01:58:37;;;;;;;10.85;7.53;;;;;;;18.02;45.45;100587.13;20895438;28;20775;-81
2022/12/30 02:08:38;;;;;;;9.77;6.87;;;;;;;18.00;45.66;100574.09;20894153;28;20041;-82
2022/12/30 02:18:57;;;;;;;10.27;7.15;;;;;;;18.00;45.54;100562.78;20894961;28;20049;-81
2022/12/30 02:29:12;;;;;;;11.00;7.25;;;;;;;17.99;45.60;100561.97;20890516;28;20037;-81
2022/12/30 02:39:28;;;;;;;10.82;7.53;;;;;;;17.99;45.65;100566.34;20870816;28;20128;-81
2022/12/30 02:49:31;;;;;;;10.20;7.50;;;;;;;17.98;45.61;100562.03;20887910;28;20403;-81
2022/12/30 03:20:40;;;;;;;10.05;7.30;;;;;;;17.97;45.60;100561.19;20909693;28;20044;-81
2022/12/30 03:30:50;;;;;;;10.95;7.53;;;;;;;17.96;45.64;100561.31;20894559;28;20041;-81
2022/12/30 03:40:52;;;;;;;12.00;7.55;;;;;;;17.95;45.79;100549.13;20905097;28;20170;-80
2022/12/30 03:50:54;;;;;;;10.32;7.25;;;;;;;17.93;45.58;100542.16;20892762;28;20163;-81
2022/12/30 04:00:54;;;;;;;8.73;6.70;;;;;;;17.93;45.56;100544.78;20913210;28;20127;-81
2022/12/30 04:10:55;;;;;;;10.50;7.00;;;;;;;17.93;45.66;100544.78;20906346;28;20175;-81
2022/12/30 04:21:03;;;;;;;8.98;6.88;;;;;;;17.92;45.82;100553.59;20902935;28;20045;-82
2022/12/30 04:31:04;;;;;;;11.82;7.65;;;;;;;17.91;45.57;100556.31;20898435;28;20051;-82
2022/12/30 04:41:04;;;;;;;11.82;7.78;;;;;;;17.91;45.57;100565.00;20899896;28;20041;-82
2022/12/30 04:51:06;;;;;;;10.35;6.88;;;;;;;17.90;45.58;100573.78;20897632;28;20625;-81
2022/12/30 05:01:06;;;;;;;12.35;7.78;;;;;;;17.90;45.56;100565.91;20898420;28;20056;-81
2022/12/30 05:11:07;;;;;;;12.05;7.88;;;;;;;17.90;45.48;100563.31;20903665;28;20466;-81
2022/12/30 05:21:07;;;;;;;11.48;7.32;;;;;;;17.89;45.61;100574.75;20904721;28;20048;-81
2022/12/30 05:31:17;;;;;;;11.25;7.32;;;;;;;17.89;45.62;100576.50;20892576;28;20519;-81
2022/12/30 05:41:18;;;;;;;9.60;7.10;;;;;;;17.89;45.44;100589.59;20883023;28;20495;-80
2022/12/30 05:51:18;;;;;;;10.02;7.10;;;;;;;17.87;45.75;100584.47;20894738;28;20051;-83
2022/12/30 06:01:19;;;;;;;10.00;6.97;;;;;;;17.88;45.66;100607.09;20873081;28;20037;-81
2022/12/30 06:11:19;;;;;;;9.90;6.97;;;;;;;17.86;45.52;100601.09;20906247;28;20515;-81
2022/12/30 06:21:20;;;;;;;10.15;7.15;;;;;;;17.86;45.69;100627.31;20909644;28;20037;-81
2022/12/30 06:31:20;;;;;;;11.07;7.32;;;;;;;17.86;45.66;100623.84;20897613;28;20090;-81
2022/12/30 06:41:21;;;;;;;11.85;7.70;;;;;;;17.85;45.60;100623.00;20904462;28;20096;-81
2022/12/30 06:51:21;;;;;;;10.68;7.20;;;;;;;17.85;45.49;100640.50;20915536;28;20045;-81
2022/12/30 07:01:22;;;;;;;10.30;7.00;;;;;;;17.84;45.56;100644.88;20917598;28;20044;-81
2022/12/30 07:11:22;;;;;;;11.40;7.43;;;;;;;17.84;45.68;100655.34;20918380;28;20118;-81
2022/12/30 07:21:23;;;;;;;10.80;7.22;;;;;;;17.85;45.57;100675.38;20917660;28;20080;-82
2022/12/30 07:31:23;;;;;;;10.63;7.40;;;;;;;17.84;45.63;100689.41;20919510;28;20086;-81
2022/12/30 07:41:26;;;;;;;11.15;7.53;;;;;;;17.85;45.71;100690.28;20917249;28;20053;-81
2022/12/30 07:51:26;;;;;;;11.10;7.70;;;;;;;17.85;45.66;100704.19;20917760;28;20095;-83
2022/12/30 08:01:27;;;;;;;12.35;7.70;;;;;;;17.85;45.61;100712.06;20915021;28;20049;-81
2022/12/30 08:11:27;;;;;;;13.18;7.57;;;;;;;17.85;45.50;100712.06;20915235;28;20053;-82
2022/12/30 08:21:27;;;;;;;12.25;7.45;;;;;;;17.86;45.59;100729.47;20916709;28;20041;-82
2022/12/30 08:31:29;;;;;;;11.18;7.53;;;;;;;17.85;45.50;100719.91;20896519;28;20041;-81
2022/12/30 08:41:33;;;;;;;12.73;7.78;;;;;;;17.86;45.62;100716.38;20911600;28;20060;-82
2022/12/30 08:51:34;;;;;;;12.05;7.60;;;;;;;17.87;45.74;100744.25;20915463;28;20053;-81
2022/12/30 09:01:40;;;;;;;10.80;7.68;;;;;;;17.88;45.59;100740.72;20896728;28;20045;-82
2022/12/30 09:11:43;;;;;;;12.70;7.47;;;;;;;17.89;45.58;100737.16;20893079;28;20041;-82
2022/12/30 09:21:43;;;;;;;13.55;7.28;;;;;;;17.89;45.59;100736.31;20913260;28;20443;-82
2022/12/30 09:31:44;;;;;;;11.57;7.57;;;;;;;17.88;45.62;100761.69;20908376;28;20063;-82
2022/12/30 09:52:25;;;;;;;14.18;8.18;;;;;;;17.90;45.54;100733.59;20907979;28;20041;-82
2022/12/30 10:02:30;;;;;;;14.18;7.93;;;;;;;17.91;45.57;100747.56;20909258;28;20067;-82
2022/12/30 10:12:43;;;;;;;12.90;7.35;;;;;;;17.90;45.58;100745.84;20900575;28;20468;-82
2022/12/30 10:22:48;;;;;;;12.17;7.27;;;;;;;17.91;45.53;100737.91;20918137;28;20503;-81
2022/12/30 10:32:56;;;;;;;11.68;7.85;;;;;;;17.91;45.42;100727.41;20907939;28;20059;-82
2022/12/30 10:43:32;;;;;;;13.75;7.60;;;;;;;17.92;45.53;100736.16;20923632;28;20073;-82
2022/12/30 10:53:32;;;;;;;13.77;8.10;;;;;;;17.92;45.41;100730.91;20839294;28;20120;-81
2022/12/30 11:03:44;;;;;;;13.88;8.02;;;;;;;17.93;45.69;100733.44;20926253;28;20132;-82
2022/12/30 11:24:16;;;;;;;14.68;8.57;;;;;;;17.95;45.50;100727.28;20918836;28;20044;-81
2022/12/30 11:34:16;;;;;;;13.02;8.07;;;;;;;17.96;45.62;100719.34;20918425;28;20114;-81
2022/12/30 11:44:31;;;;;;;17.10;9.07;;;;;;;17.98;45.59;100725.34;20901145;28;20053;-81
2022/12/30 11:54:37;;;;;;;14.57;8.48;;;;;;;18.00;45.52;100725.25;20921728;28;20048;-81
2022/12/30 12:04:40;;;;;;;15.13;8.30;;;;;;;18.01;45.48;100745.28;20914888;28;20045;-82
2022/12/30 12:14:59;;;;;;;15.50;8.73;;;;;;;18.00;45.53;100747.03;20914458;28;20131;-82
2022/12/30 12:25:06;;;;;;;14.02;8.27;;;;;;;17.99;45.63;100771.56;20902215;28;20070;-82
2022/12/30 12:35:22;;;;;;;13.10;7.90;;;;;;;18.01;45.58;100753.13;20910529;28;20033;-82
2022/12/30 12:45:57;;;;;;;13.77;8.07;;;;;;;18.02;45.56;100752.19;20911524;28;20075;-82
2022/12/30 12:56:09;;;;;;;12.90;8.38;;;;;;;18.02;45.59;100760.06;20911974;28;20079;-81
2022/12/30 13:06:36;;;;;;;13.38;7.82;;;;;;;18.02;45.52;100755.66;20914585;28;20397;-82
2022/12/30 13:16:42;;;;;;;12.25;7.95;;;;;;;18.07;45.50;100758.84;20916761;28;20106;-82
2022/12/30 13:26:43;;;;;;;13.77;8.43;;;;;;;18.08;45.44;100775.44;20908046;28;20048;-82
2022/12/30 13:36:57;;;;;;;13.75;8.43;;;;;;;18.08;45.32;100776.25;20916194;28;20041;-81
2022/12/30 13:47:00;;;;;;;13.63;8.07;;;;;;;18.06;45.30;100801.69;20914713;28;20519;-81
2022/12/30 13:57:02;;;;;;;12.43;7.63;;;;;;;18.06;45.62;100798.25;20903730;28;20041;-81
2022/12/30 14:07:03;;;;;;;13.93;8.32;;;;;;;18.04;45.56;100808.84;20921550;28;20563;-81
2022/12/30 14:17:12;;;;;;;12.85;7.90;;;;;;;18.04;45.58;100831.56;20934669;28;20082;-81
2022/12/30 14:27:40;;;;;;;12.35;8.10;;;;;;;18.03;45.67;100843.00;20918491;28;20076;-82
2022/12/30 14:37:41;;;;;;;13.23;8.20;;;;;;;18.02;45.70;100852.59;20901875;28;20043;-82
2022/12/30 14:47:45;;;;;;;13.10;7.90;;;;;;;18.01;45.72;100843.06;20906955;28;20080;-81
2022/12/30 14:57:58;;;;;;;13.63;8.40;;;;;;;18.01;45.79;100866.63;20904548;28;20049;-81
2022/12/30 15:08:18;;;;;;;13.17;7.53;;;;;;;18.00;45.74;100879.84;20908278;28;20041;-82
2022/12/30 15:18:26;;;;;;;14.40;8.05;;;;;;;18.00;45.89;100887.69;20939038;28;20044;-81
2022/12/30 15:28:28;;;;;;;11.93;7.68;;;;;;;18.00;45.67;100880.66;20942920;28;20047;-82
2022/12/30 15:38:29;;;;;;;13.43;7.78;;;;;;;18.00;45.79;100885.06;20936680;28;20033;-81
2022/12/30 15:48:31;;;;;;;12.10;7.40;;;;;;;17.99;45.69;100879.00;20942960;28;20112;-81
2022/12/30 15:58:37;;;;;;;14.05;8.23;;;;;;;17.99;45.77;100894.72;20918711;28;20083;-81
2022/12/30 16:08:39;;;;;;;13.32;7.70;;;;;;;17.98;45.89;100902.66;20919579;28;20037;-81
2022/12/30 16:18:39;;;;;;;11.07;7.18;;;;;;;17.96;45.82;100913.22;20910579;28;20048;-82
2022/12/30 16:28:43;;;;;;;11.38;7.40;;;;;;;17.96;45.76;100899.28;20891683;28;20143;-82
2022/12/30 16:38:46;;;;;;;;;;;;;;;17.96;45.94;100918.47;20918914;28;20045;-81
2022/12/30 16:48:47;;;;;;;12.30;7.28;;;;;;;17.96;45.94;100930.72;20895823;28;20007;-82
2022/12/30 16:58:48;;;;;;;12.48;7.60;;;;;;;17.97;45.87;100942.88;20916570;28;20037;-81
2022/12/30 17:08:48;;;;;;;10.90;7.00;;;;;;;17.95;45.93;100936.91;20917683;28;20064;-82
2022/12/30 17:18:50;;;;;;;12.55;7.63;;;;;;;17.96;45.85;100935.97;20895221;28;20045;-82
2022/12/30 17:28:51;;;;;;;9.63;6.80;;;;;;;17.95;46.05;100926.41;20913629;28;20037;-81
2022/12/30 17:38:52;;;;;;;10.85;6.38;;;;;;;17.95;45.87;100952.63;20906466;28;20472;-81
2022/12/30 17:48:54;;;;;;;10.10;6.90;;;;;;;17.95;45.94;100960.47;20894171;28;20048;-81
2022/12/30 17:58:55;;;;;;;9.10;6.20;;;;;;;17.95;45.99;100963.94;20908337;28;20124;-81
2022/12/30 18:08:56;;;;;;;9.98;6.20;;;;;;;17.94;45.99;100951.72;20907078;28;20068;-80
2022/12/30 18:18:57;;;;;;;11.40;6.18;;;;;;;17.93;45.85;100955.28;20904908;28;20430;-81
2022/12/30 18:29:01;;;;;;;9.15;6.20;;;;;;;17.92;46.01;100959.69;20907533;28;20064;-81
2022/12/30 18:39:03;;;;;;;;;;;;;;;17.93;45.95;100947.41;20908451;28;20119;-82
2022/12/30 18:49:06;;;;;;;8.85;6.05;;;;;;;17.93;45.77;100960.50;20922089;28;19946;-81
2022/12/30 18:59:07;;;;;;;9.65;6.07;;;;;;;17.93;45.92;100971.84;20905597;28;20124;-81
2022/12/30 19:09:10;;;;;;;9.57;6.15;;;;;;;17.93;45.88;101010.28;20920686;28;20068;-82
2022/12/30 19:19:14;;;;;;;9.53;6.30;;;;;;;17.91;45.93;100975.50;20902424;28;20500;-81
2022/12/30 19:29:15;;;;;;;8.77;5.47;;;;;;;17.91;45.96;100957.16;20921396;28;20059;-81
2022/12/30 19:39:17;;;;;;;8.82;5.65;;;;;;;17.92;45.80;100971.94;20917309;28;20069;-80
2022/12/30 19:49:19;;;;;;;8.00;5.60;;;;;;;17.90;46.01;100974.63;20894795;28;20052;-81
2022/12/30 19:59:20;;;;;;;8.10;5.65;;;;;;;17.90;46.00;100966.75;20896989;28;20052;-81
2022/12/30 20:09:20;;;;;;;9.88;6.32;;;;;;;17.90;45.89;100998.19;20900121;28;20807;-81
2022/12/30 20:19:21;;;;;;;8.25;5.82;;;;;;;17.92;45.85;100977.19;20896993;28;20060;-80
2022/12/30 20:29:23;;;;;;;7.97;5.05;;;;;;;17.88;46.03;100970.41;20914477;28;20399;-81
2022/12/30 20:39:27;;;;;;;8.63;5.55;;;;;;;17.88;45.92;100986.13;20915290;28;20682;-81
2022/12/30 20:49:27;;;;;;;;;;;;;;;17.88;46.06;100994.84;20900461;28;20135;-81
2022/12/30 20:59:29;;;;;;;8.48;5.55;;;;;;;17.88;46.39;101010.56;20911180;28;19932;-82
2022/12/30 21:09:29;;;;;;;8.82;5.60;;;;;;;17.88;46.15;101014.94;20892091;28;20071;-82
2022/12/30 21:19:31;;;;;;;8.32;5.22;;;;;;;17.87;45.97;101026.34;20909115;28;20067;-81
2022/12/30 21:29:32;;;;;;;7.20;5.10;;;;;;;17.88;46.18;101020.19;20891357;28;20036;-82
2022/12/30 22:10:41;;;;;;;7.53;5.03;;;;;;;17.86;46.16;101011.56;20904049;28;20044;-83
2022/12/30 22:20:42;;;;;;;7.80;4.80;;;;;;;17.86;46.07;101012.41;20921513;28;20080;-83
2022/12/30 22:30:43;;;;;;;6.53;4.95;;;;;;;17.84;45.99;101003.78;20912757;28;20487;-83
2022/12/30 22:40:44;;;;;;;7.65;5.03;;;;;;;17.85;46.08;101002.84;20928862;28;20041;-82
2022/12/30 22:50:45;;;;;;;5.90;4.50;;;;;;;17.84;45.99;100995.09;20927504;28;20569;-83
2022/12/30 23:00:46;;;;;;;6.97;5.20;;;;;;;17.84;46.18;101002.94;20908551;28;20084;-83
2022/12/30 23:10:47;;;;;;;7.47;5.22;;;;;;;17.82;46.10;101003.03;20909348;28;20123;-82
2022/12/30 23:20:47;;;;;;;7.50;5.10;;;;;;;17.83;46.01;101019.59;20901814;28;20564;-80
2022/12/30 23:30:47;;;;;;;6.80;4.78;;;;;;;17.82;46.18;101016.13;20916939;28;20040;-81
2022/12/30 23:40:48;;;;;;;7.65;5.20;;;;;;;17.82;46.19;101010.03;20909911;28;20049;-82
2022/12/30 23:50:48;;;;;;;7.10;4.85;;;;;;;17.81;45.89;100998.72;20912815;28;20123;-82
